createdAt,value
2018-07-26T00:01:05.014Z,6.20
2018-07-26T00:03:33.292Z,5.77
2018-07-26T00:06:01.529Z,6.57
2018-07-26T00:08:29.800Z,6.30
2018-07-26T00:10:58.036Z,6.50
2018-07-26T00:13:26.259Z,6.67
2018-07-26T00:15:54.474Z,6.60
2018-07-26T00:18:22.688Z,7.07
2018-07-26T00:20:50.922Z,6.67
2018-07-26T00:23:19.194Z,6.60
2018-07-26T00:25:47.469Z,7.00
2018-07-26T00:28:15.752Z,7.47
2018-07-26T00:30:44.049Z,7.33
2018-07-26T00:33:12.276Z,8.40
2018-07-26T00:35:40.504Z,6.83
2018-07-26T00:38:08.750Z,7.73
2018-07-26T00:40:36.997Z,12.70
2018-07-26T00:43:05.383Z,6.13
2018-07-26T00:45:33.672Z,6.73
2018-07-26T00:48:01.964Z,6.47
2018-07-26T00:50:30.233Z,6.57
2018-07-26T00:52:58.484Z,6.27
2018-07-26T00:55:26.700Z,7.17
2018-07-26T00:57:54.928Z,6.73
2018-07-26T01:00:23.189Z,7.20
2018-07-26T01:02:51.620Z,6.60
2018-07-26T01:05:19.984Z,6.90
2018-07-26T01:07:48.276Z,6.83
2018-07-26T01:10:16.494Z,7.57
2018-07-26T01:12:44.732Z,6.67
2018-07-26T01:15:13.056Z,6.33
2018-07-26T01:17:41.289Z,7.57
2018-07-26T01:20:09.520Z,6.77
2018-07-26T01:22:37.740Z,6.60
2018-07-26T01:25:06.082Z,8.17
2018-07-26T01:27:34.327Z,7.80
2018-07-26T01:30:02.651Z,7.63
2018-07-26T01:32:30.930Z,7.10
2018-07-26T01:34:59.157Z,6.60
2018-07-26T01:37:27.393Z,7.43
2018-07-26T01:39:55.636Z,7.03
2018-07-26T01:42:24.000Z,6.90
2018-07-26T01:44:52.211Z,7.50
2018-07-26T01:47:20.424Z,7.53
2018-07-26T01:49:48.692Z,9.00
2018-07-26T01:52:16.942Z,7.67
2018-07-26T01:54:45.192Z,7.03
2018-07-26T01:57:13.420Z,6.83
2018-07-26T01:59:41.633Z,8.57
2018-07-26T02:02:09.922Z,7.33
2018-07-26T02:04:38.124Z,7.63
2018-07-26T02:07:06.332Z,7.20
2018-07-26T02:09:34.611Z,7.77
2018-07-26T02:12:02.841Z,8.40
2018-07-26T02:14:33.844Z,7.93
2018-07-26T02:17:02.072Z,7.00
2018-07-26T02:19:30.289Z,7.13
2018-07-26T02:21:58.544Z,9.30
2018-07-26T02:24:26.773Z,7.43
2018-07-26T02:26:54.985Z,7.43
2018-07-26T02:29:23.208Z,8.97
2018-07-26T02:31:51.400Z,7.43
2018-07-26T02:34:19.621Z,9.80
2018-07-26T02:36:47.879Z,9.43
2018-07-26T02:39:16.064Z,6.80
2018-07-26T02:41:44.301Z,7.57
2018-07-26T02:44:12.537Z,8.37
2018-07-26T02:46:40.757Z,8.50
2018-07-26T02:49:09.001Z,7.27
2018-07-26T02:51:37.233Z,7.17
2018-07-26T02:54:05.597Z,7.33
2018-07-26T02:56:34.175Z,7.83
2018-07-26T02:59:02.388Z,7.43
2018-07-26T03:01:30.961Z,7.23
2018-07-26T03:03:59.181Z,7.20
2018-07-26T03:06:27.412Z,7.13
2018-07-26T03:08:55.676Z,7.40
2018-07-26T03:11:23.912Z,7.57
2018-07-26T03:13:52.174Z,7.30
2018-07-26T03:16:20.437Z,7.73
2018-07-26T03:18:48.644Z,7.30
2018-07-26T03:21:16.881Z,7.20
2018-07-26T03:23:45.141Z,7.40
2018-07-26T03:26:13.384Z,7.30
2018-07-26T03:28:41.636Z,9.57
2018-07-26T03:31:10.237Z,9.60
2018-07-26T03:33:38.476Z,8.07
2018-07-26T03:36:06.709Z,10.40
2018-07-26T03:38:34.956Z,7.37
2018-07-26T03:41:03.184Z,7.20
2018-07-26T03:43:31.448Z,7.47
2018-07-26T03:45:59.659Z,9.17
2018-07-26T03:48:27.888Z,9.27
2018-07-26T03:50:56.116Z,8.17
2018-07-26T03:53:24.348Z,7.37
2018-07-26T03:55:52.576Z,7.70
2018-07-26T03:58:20.824Z,9.97
2018-07-26T04:00:49.056Z,7.43
2018-07-26T04:03:17.279Z,8.40
2018-07-26T04:05:45.488Z,7.37
2018-07-26T04:08:13.702Z,7.60
2018-07-26T04:10:41.926Z,7.03
2018-07-26T04:13:10.148Z,7.70
2018-07-26T04:15:38.381Z,7.30
2018-07-26T04:18:07.236Z,7.37
2018-07-26T04:20:35.747Z,15.10
2018-07-26T04:23:03.985Z,26.53
2018-07-26T04:25:32.536Z,13.17
2018-07-26T04:28:01.444Z,18.27
2018-07-26T04:30:29.700Z,13.10
2018-07-26T04:32:57.921Z,12.67
2018-07-26T04:35:26.132Z,11.43
2018-07-26T04:37:54.416Z,9.40
2018-07-26T04:40:22.632Z,8.67
2018-07-26T04:42:50.881Z,8.53
2018-07-26T04:45:19.088Z,9.57
2018-07-26T04:47:47.333Z,8.30
2018-07-26T04:50:15.559Z,7.20
2018-07-26T04:52:43.821Z,8.63
2018-07-26T04:55:12.029Z,8.73
2018-07-26T04:57:40.288Z,9.03
2018-07-26T05:00:08.668Z,8.40
2018-07-26T05:02:37.172Z,9.40
2018-07-26T05:05:06.000Z,10.77
2018-07-26T05:07:34.652Z,8.50
2018-07-26T05:10:02.904Z,8.77
2018-07-26T05:12:31.157Z,9.53
2018-07-26T05:14:59.376Z,8.57
2018-07-26T05:17:27.640Z,9.37
2018-07-26T05:19:55.860Z,10.73
2018-07-26T05:22:24.085Z,9.77
2018-07-26T05:24:52.309Z,8.47
2018-07-26T05:27:20.532Z,9.40
2018-07-26T05:29:48.800Z,9.80
2018-07-26T05:32:18.309Z,8.70
2018-07-26T05:34:46.570Z,9.70
2018-07-26T05:37:14.788Z,9.37
2018-07-26T05:39:43.075Z,8.70
2018-07-26T05:42:11.348Z,9.53
2018-07-26T05:44:39.620Z,8.33
2018-07-26T05:47:07.929Z,8.00
2018-07-26T05:49:36.172Z,8.07
2018-07-26T05:52:04.408Z,8.47
2018-07-26T05:54:32.705Z,15.10
2018-07-26T05:57:00.925Z,9.80
2018-07-26T05:59:29.140Z,9.70
2018-07-26T06:01:57.592Z,9.23
2018-07-26T06:04:25.885Z,9.70
2018-07-26T06:06:54.056Z,9.03
2018-07-26T06:09:22.296Z,10.20
2018-07-26T06:11:50.540Z,10.30
2018-07-26T06:14:18.788Z,8.70
2018-07-26T06:16:47.008Z,10.10
2018-07-26T06:19:15.225Z,9.80
2018-07-26T06:21:43.448Z,12.47
2018-07-26T06:24:11.684Z,10.43
2018-07-26T06:26:39.958Z,11.47
2018-07-26T06:29:08.200Z,9.47
2018-07-26T06:31:36.429Z,10.27
2018-07-26T06:34:04.821Z,9.50
2018-07-26T06:36:33.102Z,10.53
2018-07-26T06:39:01.325Z,9.43
2018-07-26T06:41:29.645Z,11.40
2018-07-26T06:43:57.901Z,10.43
2018-07-26T06:46:26.142Z,9.67
2018-07-26T06:48:54.425Z,10.87
2018-07-26T06:51:22.701Z,9.20
2018-07-26T06:53:50.924Z,12.37
2018-07-26T06:56:19.128Z,7.67
2018-07-26T06:58:47.416Z,8.73
2018-07-26T07:01:16.026Z,8.17
2018-07-26T07:03:44.313Z,6.63
2018-07-26T07:06:12.533Z,9.23
2018-07-26T07:08:40.884Z,6.57
2018-07-26T07:11:09.464Z,6.73
2018-07-26T07:13:37.724Z,6.00
2018-07-26T07:16:06.065Z,5.53
2018-07-26T07:18:34.428Z,4.83
2018-07-26T07:21:02.643Z,5.97
2018-07-26T07:23:30.872Z,5.50
2018-07-26T07:25:59.118Z,5.43
2018-07-26T07:28:27.376Z,5.77
2018-07-26T07:30:55.664Z,5.47
2018-07-26T07:33:23.985Z,6.47
2018-07-26T07:35:52.230Z,5.90
2018-07-26T07:38:20.490Z,5.73
2018-07-26T07:40:48.716Z,4.83
2018-07-26T07:43:17.004Z,5.07
2018-07-26T07:45:45.244Z,4.00
2018-07-26T07:48:13.440Z,7.30
2018-07-26T07:50:41.680Z,5.43
2018-07-26T07:53:09.912Z,7.50
2018-07-26T07:55:38.124Z,4.93
2018-07-26T07:58:06.553Z,3.60
2018-07-26T08:00:34.793Z,4.87
2018-07-26T08:03:03.041Z,4.23
2018-07-26T08:05:31.277Z,4.13
2018-07-26T08:07:59.497Z,4.63
2018-07-26T08:10:27.720Z,3.47
2018-07-26T08:12:55.945Z,4.03
2018-07-26T08:15:24.141Z,3.73
2018-07-26T08:17:52.384Z,3.60
2018-07-26T08:20:20.592Z,9.80
2018-07-26T08:22:48.804Z,4.53
2018-07-26T08:25:17.072Z,3.77
2018-07-26T08:27:45.284Z,3.80
2018-07-26T08:30:13.546Z,4.77
2018-07-26T08:32:41.788Z,3.90
2018-07-26T08:35:10.059Z,3.93
2018-07-26T08:37:38.252Z,4.70
2018-07-26T08:40:06.750Z,6.10
2018-07-26T08:42:34.956Z,6.17
2018-07-26T08:45:03.215Z,5.20
2018-07-26T08:47:31.756Z,3.87
2018-07-26T08:49:59.966Z,4.27
2018-07-26T08:52:28.176Z,4.10
2018-07-26T08:54:56.477Z,5.87
2018-07-26T08:57:24.693Z,6.23
2018-07-26T08:59:53.001Z,3.97
2018-07-26T09:02:21.454Z,7.90
2018-07-26T09:04:49.721Z,4.00
2018-07-26T09:07:17.985Z,3.80
2018-07-26T09:09:46.297Z,3.00
2018-07-26T09:12:14.468Z,5.97
2018-07-26T09:14:42.697Z,3.77
2018-07-26T09:17:10.990Z,4.93
2018-07-26T09:19:39.240Z,3.93
2018-07-26T09:22:07.435Z,4.33
2018-07-26T09:24:35.814Z,4.83
2018-07-26T09:27:04.009Z,4.60
2018-07-26T09:29:32.281Z,8.17
2018-07-26T09:32:00.474Z,4.10
2018-07-26T09:34:28.705Z,3.90
2018-07-26T09:36:56.916Z,4.73
2018-07-26T09:39:25.129Z,5.67
2018-07-26T09:41:53.350Z,5.57
2018-07-26T09:44:21.581Z,5.80
2018-07-26T09:46:49.821Z,4.47
2018-07-26T09:49:18.174Z,4.43
2018-07-26T09:51:46.493Z,4.97
2018-07-26T09:54:14.708Z,5.57
2018-07-26T09:56:42.916Z,3.20
2018-07-26T09:59:11.119Z,4.40
2018-07-26T10:01:40.281Z,4.77
2018-07-26T10:04:08.488Z,5.10
2018-07-26T10:06:36.680Z,5.27
2018-07-26T10:09:09.148Z,4.37
2018-07-26T10:11:37.444Z,3.70
2018-07-26T10:14:05.742Z,3.57
2018-07-26T10:16:34.019Z,5.63
2018-07-26T10:19:02.308Z,2.90
2018-07-26T10:21:30.562Z,6.60
2018-07-26T10:23:58.976Z,3.30
2018-07-26T10:26:27.180Z,3.10
2018-07-26T10:28:55.456Z,5.63
2018-07-26T10:31:23.684Z,3.37
2018-07-26T10:33:51.929Z,4.23
2018-07-26T10:36:20.197Z,3.73
2018-07-26T10:38:48.414Z,9.00
2018-07-26T10:41:16.654Z,4.20
2018-07-26T10:43:44.865Z,3.53
2018-07-26T10:46:13.088Z,4.40
2018-07-26T10:48:41.338Z,6.27
2018-07-26T10:51:09.553Z,4.33
2018-07-26T10:53:37.760Z,5.50
2018-07-26T10:56:06.407Z,5.33
2018-07-26T10:58:34.720Z,4.43
2018-07-26T11:01:02.948Z,3.27
2018-07-26T11:03:31.317Z,7.13
2018-07-26T11:05:59.732Z,3.57
2018-07-26T11:08:27.996Z,3.97
2018-07-26T11:10:56.220Z,3.10
2018-07-26T11:13:24.433Z,4.93
2018-07-26T11:15:52.676Z,3.73
2018-07-26T11:18:20.940Z,4.97
2018-07-26T11:20:49.188Z,5.57
2018-07-26T11:23:17.404Z,3.10
2018-07-26T11:25:45.698Z,5.47
2018-07-26T11:28:13.852Z,7.53
2018-07-26T11:30:42.125Z,2.70
2018-07-26T11:33:10.484Z,4.03
2018-07-26T11:35:38.728Z,3.67
2018-07-26T11:38:06.983Z,2.93
2018-07-26T11:40:35.216Z,10.23
2018-07-26T11:43:03.478Z,2.73
2018-07-26T11:45:31.732Z,3.47
2018-07-26T11:47:59.960Z,3.33
2018-07-26T11:50:28.160Z,2.93
2018-07-26T11:52:56.369Z,3.47
2018-07-26T11:55:24.580Z,3.33
2018-07-26T11:57:52.847Z,6.15
2018-07-26T12:00:21.048Z,5.40
2018-07-26T12:02:49.264Z,6.00
2018-07-26T12:05:17.472Z,4.67
2018-07-26T12:07:45.688Z,3.57
2018-07-26T12:10:13.904Z,4.10
2018-07-26T12:12:42.144Z,5.37
2018-07-26T12:15:10.565Z,8.17
2018-07-26T12:17:38.784Z,3.52
2018-07-26T12:20:07.046Z,2.73
2018-07-26T12:22:35.244Z,5.73
2018-07-26T12:25:03.460Z,4.67
2018-07-26T12:27:31.672Z,3.13
2018-07-26T12:29:59.881Z,2.67
2018-07-26T12:32:28.144Z,3.13
2018-07-26T12:34:56.341Z,3.10
2018-07-26T12:37:24.548Z,2.93
2018-07-26T12:39:52.756Z,3.30
2018-07-26T12:42:20.997Z,3.90
2018-07-26T12:44:49.249Z,3.13
2018-07-26T12:47:17.466Z,3.20
2018-07-26T12:49:45.689Z,3.13
2018-07-26T12:52:18.472Z,4.00
2018-07-26T12:54:46.797Z,3.80
2018-07-26T12:57:15.060Z,3.33
2018-07-26T12:59:43.284Z,5.12
2018-07-26T13:02:11.492Z,2.92
2018-07-26T13:04:39.740Z,3.08
2018-07-26T13:07:07.985Z,3.47
2018-07-26T13:09:36.200Z,4.37
2018-07-26T13:12:04.464Z,2.72
2018-07-26T13:14:32.772Z,4.55
2018-07-26T13:17:01.045Z,3.93
2018-07-26T13:19:29.310Z,2.77
2018-07-26T13:21:57.540Z,3.47
2018-07-26T13:24:25.752Z,3.87
2018-07-26T13:26:54.004Z,2.50
2018-07-26T13:29:22.298Z,3.22
2018-07-26T13:31:50.508Z,2.58
2018-07-26T13:34:18.747Z,2.87
2018-07-26T13:36:46.972Z,2.65
2018-07-26T13:39:15.193Z,4.83
2018-07-26T13:41:43.436Z,4.10
2018-07-26T13:44:11.668Z,3.77
2018-07-26T13:46:39.861Z,3.65
2018-07-26T13:49:08.068Z,3.40
2018-07-26T13:51:36.292Z,3.42
2018-07-26T13:54:04.552Z,2.92
2018-07-26T13:56:32.760Z,3.17
2018-07-26T13:59:00.983Z,2.47
2018-07-26T14:01:29.211Z,3.35
2018-07-26T14:03:57.451Z,4.20
2018-07-26T14:06:25.712Z,3.25
2018-07-26T14:08:53.912Z,4.30
2018-07-26T14:11:22.108Z,3.13
2018-07-26T14:13:50.312Z,2.70
2018-07-26T14:16:18.760Z,5.03
2018-07-26T14:18:46.972Z,3.73
2018-07-26T14:21:15.252Z,4.03
2018-07-26T14:23:43.457Z,3.10
2018-07-26T14:26:12.736Z,3.43
2018-07-26T14:28:41.445Z,3.20
2018-07-26T14:31:10.038Z,3.20
2018-07-26T14:33:38.302Z,2.83
2018-07-26T14:36:13.217Z,2.80
2018-07-26T14:38:41.476Z,3.60
2018-07-26T14:41:09.716Z,2.50
2018-07-26T14:43:38.531Z,2.57
2018-07-26T14:46:07.059Z,3.63
2018-07-26T14:48:35.272Z,5.60
2018-07-26T14:51:03.586Z,3.37
2018-07-26T14:53:31.816Z,3.12
2018-07-26T14:56:00.005Z,2.42
2018-07-26T14:58:28.220Z,2.40
2018-07-26T15:00:56.504Z,3.50
2018-07-26T15:03:24.720Z,3.27
2018-07-26T15:05:53.008Z,3.83
2018-07-26T15:08:21.244Z,5.73
2018-07-26T15:10:49.444Z,3.07
2018-07-26T15:13:17.644Z,2.40
2018-07-26T15:15:45.881Z,5.03
2018-07-26T15:18:14.117Z,6.33
2018-07-26T15:20:42.370Z,3.33
2018-07-26T15:23:10.604Z,4.17
2018-07-26T15:25:38.840Z,3.00
2018-07-26T15:28:07.052Z,2.50
2018-07-26T15:30:35.269Z,3.10
2018-07-26T15:33:03.539Z,2.50
2018-07-26T15:35:31.737Z,3.50
2018-07-26T15:37:59.946Z,2.73
2018-07-26T15:40:28.193Z,3.90
2018-07-26T15:42:56.425Z,2.60
2018-07-26T15:45:24.752Z,2.73
2018-07-26T15:47:52.976Z,2.73
2018-07-26T15:50:21.189Z,2.83
2018-07-26T15:52:49.395Z,2.37
2018-07-26T15:55:17.618Z,2.93
2018-07-26T15:57:45.884Z,3.43
2018-07-26T16:00:14.093Z,2.17
2018-07-26T16:02:42.320Z,2.80
2018-07-26T16:05:10.569Z,3.43
2018-07-26T16:07:38.772Z,2.37
2018-07-26T16:10:07.927Z,2.90
2018-07-26T16:12:36.281Z,3.45
2018-07-26T16:15:07.157Z,2.87
2018-07-26T16:17:35.492Z,3.73
2018-07-26T16:20:04.421Z,2.70
2018-07-26T16:22:32.638Z,3.17
2018-07-26T16:25:00.848Z,5.20
2018-07-26T16:27:29.060Z,3.13
2018-07-26T16:29:57.269Z,5.73
2018-07-26T16:32:25.469Z,3.67
2018-07-26T16:34:53.701Z,6.90
2018-07-26T16:37:21.924Z,3.63
2018-07-26T16:39:50.205Z,8.20
2018-07-26T16:42:18.325Z,6.07
2018-07-26T16:44:46.571Z,5.13
2018-07-26T16:47:14.784Z,6.67
2018-07-26T16:49:42.976Z,4.37
2018-07-26T16:52:11.244Z,5.73
2018-07-26T16:54:39.460Z,5.00
2018-07-26T16:57:07.748Z,5.10
2018-07-26T16:59:35.956Z,3.53
2018-07-26T17:02:04.220Z,4.33
2018-07-26T17:04:32.476Z,5.77
2018-07-26T17:07:00.733Z,5.53
2018-07-26T17:09:28.948Z,2.53
2018-07-26T17:11:57.184Z,4.50
2018-07-26T17:14:25.404Z,2.57
2018-07-26T17:16:53.628Z,3.83
2018-07-26T17:19:21.980Z,3.03
2018-07-26T17:21:50.188Z,5.77
2018-07-26T17:24:18.460Z,2.60
2018-07-26T17:26:46.672Z,2.63
2018-07-26T17:29:14.938Z,3.23
2018-07-26T17:31:43.215Z,4.80
2018-07-26T17:34:11.424Z,4.83
2018-07-26T17:36:39.696Z,4.03
2018-07-26T17:39:09.360Z,3.00
2018-07-26T17:41:37.616Z,5.37
2018-07-26T17:44:06.154Z,3.40
2018-07-26T17:46:34.625Z,4.43
2018-07-26T17:49:02.852Z,2.93
2018-07-26T17:51:31.318Z,2.93
2018-07-26T17:53:59.580Z,4.70
2018-07-26T17:56:27.817Z,4.40
2018-07-26T17:58:56.057Z,3.40
2018-07-26T18:01:24.324Z,5.73
2018-07-26T18:03:52.537Z,4.80
2018-07-26T18:06:20.752Z,9.00
2018-07-26T18:08:48.976Z,5.30
2018-07-26T18:11:17.240Z,3.60
2018-07-26T18:13:45.538Z,8.47
2018-07-26T18:16:13.757Z,4.33
2018-07-26T18:18:41.981Z,9.87
2018-07-26T18:21:10.202Z,4.83
2018-07-26T18:23:38.437Z,6.40
2018-07-26T18:26:06.715Z,4.87
2018-07-26T18:28:34.988Z,4.33
2018-07-26T18:31:03.209Z,6.63
2018-07-26T18:33:31.432Z,3.63
2018-07-26T18:35:59.644Z,5.83
2018-07-26T18:38:27.923Z,3.07
2018-07-26T18:40:56.122Z,5.80
2018-07-26T18:43:24.381Z,4.43
2018-07-26T18:45:52.572Z,5.50
2018-07-26T18:48:20.985Z,4.63
2018-07-26T18:50:49.184Z,7.37
2018-07-26T18:53:17.428Z,5.20
2018-07-26T18:55:45.652Z,7.30
2018-07-26T18:58:13.895Z,6.07
2018-07-26T19:00:42.120Z,7.67
2018-07-26T19:03:10.356Z,4.33
2018-07-26T19:05:38.604Z,3.73
2018-07-26T19:08:07.154Z,3.43
2018-07-26T19:10:35.426Z,5.53
2018-07-26T19:13:03.686Z,6.07
2018-07-26T19:15:31.904Z,5.93
2018-07-26T19:18:00.164Z,8.40
2018-07-26T19:20:28.372Z,4.87
2018-07-26T19:22:56.588Z,6.10
2018-07-26T19:25:24.834Z,8.43
2018-07-26T19:27:53.071Z,6.20
2018-07-26T19:30:21.293Z,8.67
2018-07-26T19:32:49.492Z,7.83
2018-07-26T19:35:17.753Z,10.27
2018-07-26T19:37:46.007Z,14.70
2018-07-26T19:40:14.385Z,8.17
2018-07-26T19:42:42.889Z,6.50
2018-07-26T19:45:11.889Z,5.03
2018-07-26T19:47:40.409Z,5.70
2018-07-26T19:50:08.984Z,11.10
2018-07-26T19:52:37.216Z,5.40
2018-07-26T19:55:07.165Z,5.33
2018-07-26T19:57:35.401Z,7.50
2018-07-26T20:00:03.992Z,6.10
2018-07-26T20:02:32.253Z,3.73
2018-07-26T20:05:00.477Z,4.83
2018-07-26T20:07:28.717Z,6.13
2018-07-26T20:09:56.956Z,3.60
2018-07-26T20:12:25.125Z,6.33
2018-07-26T20:14:53.383Z,5.53
2018-07-26T20:17:21.592Z,6.53
2018-07-26T20:19:49.819Z,5.53
2018-07-26T20:22:18.058Z,6.17
2018-07-26T20:24:46.272Z,4.30
2018-07-26T20:27:14.488Z,6.07
2018-07-26T20:29:42.712Z,5.53
2018-07-26T20:32:10.912Z,3.63
2018-07-26T20:34:39.209Z,4.30
2018-07-26T20:37:07.381Z,7.03
2018-07-26T20:39:35.604Z,4.87
2018-07-26T20:42:03.861Z,6.53
2018-07-26T20:44:32.176Z,4.43
2018-07-26T20:47:00.537Z,6.30
2018-07-26T20:49:28.752Z,3.43
2018-07-26T20:51:56.993Z,4.57
2018-07-26T20:54:25.192Z,3.77
2018-07-26T20:56:53.412Z,5.10
2018-07-26T20:59:21.728Z,5.30
2018-07-26T21:01:49.934Z,4.03
2018-07-26T21:04:18.175Z,4.73
2018-07-26T21:06:46.368Z,4.23
2018-07-26T21:09:14.928Z,4.30
2018-07-26T21:11:43.958Z,4.97
2018-07-26T21:14:12.144Z,3.90
2018-07-26T21:16:40.368Z,3.67
2018-07-26T21:19:08.592Z,4.20
2018-07-26T21:21:36.801Z,3.93
2018-07-26T21:24:05.211Z,3.63
2018-07-26T21:26:33.366Z,5.43
2018-07-26T21:29:01.568Z,3.67
2018-07-26T21:31:29.844Z,3.63
2018-07-26T21:33:58.056Z,5.13
2018-07-26T21:36:26.268Z,3.50
2018-07-26T21:38:54.468Z,4.60
2018-07-26T21:41:22.724Z,3.73
2018-07-26T21:43:51.001Z,3.77
2018-07-26T21:46:19.208Z,6.20
2018-07-26T21:48:47.421Z,3.33
2018-07-26T21:51:15.670Z,4.30
2018-07-26T21:53:43.884Z,3.37
2018-07-26T21:56:12.090Z,4.53
2018-07-26T21:58:40.292Z,3.20
2018-07-26T22:01:08.541Z,2.87
2018-07-26T22:03:36.829Z,4.27
2018-07-26T22:06:05.208Z,3.20
2018-07-26T22:08:33.443Z,2.97
2018-07-26T22:11:01.678Z,3.40
2018-07-26T22:13:29.896Z,4.23
2018-07-26T22:15:58.220Z,3.20
2018-07-26T22:18:26.383Z,3.23
2018-07-26T22:20:54.609Z,4.23
2018-07-26T22:23:22.854Z,4.93
2018-07-26T22:25:51.366Z,3.03
2018-07-26T22:28:19.858Z,3.20
2018-07-26T22:30:48.444Z,3.20
2018-07-26T22:33:16.668Z,3.00
2018-07-26T22:35:44.900Z,5.50
2018-07-26T22:38:13.620Z,4.07
2018-07-26T22:40:41.895Z,3.47
2018-07-26T22:43:10.164Z,2.83
2018-07-26T22:45:38.906Z,3.03
2018-07-26T22:48:07.388Z,3.70
2018-07-26T22:50:35.736Z,5.97
2018-07-26T22:53:03.952Z,4.63
2018-07-26T22:55:32.152Z,3.40
2018-07-26T22:58:00.658Z,3.67
2018-07-26T23:00:29.233Z,3.70
2018-07-26T23:02:57.484Z,4.23
2018-07-26T23:05:25.720Z,5.50
2018-07-26T23:07:54.220Z,4.17
2018-07-26T23:10:22.404Z,5.20
2018-07-26T23:12:50.612Z,3.67
2018-07-26T23:15:18.834Z,3.50
2018-07-26T23:17:47.064Z,3.60
2018-07-26T23:20:15.310Z,3.80
2018-07-26T23:22:43.515Z,3.87
2018-07-26T23:25:11.749Z,4.67
2018-07-26T23:27:39.988Z,4.77
2018-07-26T23:30:11.170Z,3.27
2018-07-26T23:32:39.524Z,3.53
2018-07-26T23:35:07.970Z,4.83
2018-07-26T23:37:36.230Z,4.83
2018-07-26T23:40:06.197Z,3.50
2018-07-26T23:42:34.401Z,3.97
2018-07-26T23:45:02.653Z,4.60
2018-07-26T23:47:30.878Z,3.33
2018-07-26T23:49:59.088Z,4.17
2018-07-26T23:52:27.304Z,3.40
2018-07-26T23:54:55.520Z,3.43
2018-07-26T23:57:23.712Z,3.30
2018-07-26T23:59:51.932Z,4.10
